sensor_id;sensor_type;location;lat;lon;timestamp;P1;durP1;ratioP1;P2;durP2;ratioP2
52033;SDS011;38045;52.988;6.536;2023-03-14T00:00:35;16.98;;;4.90;;
52033;SDS011;38045;52.988;6.536;2023-03-14T00:03:02;17.77;;;6.13;;
52033;SDS011;38045;52.988;6.536;2023-03-14T00:05:27;14.90;;;2.97;;
52033;SDS011;38045;52.988;6.536;2023-03-14T00:07:53;20.40;;;5.57;;
52033;SDS011;38045;52.988;6.536;2023-03-14T00:10:19;13.65;;;3.17;;
52033;SDS011;38045;52.988;6.536;2023-03-14T00:12:45;16.40;;;5.55;;
52033;SDS011;38045;52.988;6.536;2023-03-14T00:15:11;9.48;;;3.33;;
52033;SDS011;38045;52.988;6.536;2023-03-14T00:17:37;16.08;;;5.45;;
52033;SDS011;38045;52.988;6.536;2023-03-14T00:20:04;16.08;;;3.10;;
52033;SDS011;38045;52.988;6.536;2023-03-14T00:22:35;14.70;;;4.93;;
52033;SDS011;38045;52.988;6.536;2023-03-14T00:25:01;17.98;;;5.65;;
52033;SDS011;38045;52.988;6.536;2023-03-14T00:27:27;13.30;;;3.83;;
52033;SDS011;38045;52.988;6.536;2023-03-14T00:29:53;20.33;;;5.05;;
52033;SDS011;38045;52.988;6.536;2023-03-14T00:32:19;18.58;;;5.07;;
52033;SDS011;38045;52.988;6.536;2023-03-14T00:34:44;24.10;;;6.75;;
52033;SDS011;38045;52.988;6.536;2023-03-14T00:37:10;21.05;;;5.13;;
52033;SDS011;38045;52.988;6.536;2023-03-14T00:39:35;22.42;;;6.07;;
52033;SDS011;38045;52.988;6.536;2023-03-14T00:42:01;19.67;;;6.03;;
52033;SDS011;38045;52.988;6.536;2023-03-14T00:44:27;20.55;;;5.82;;
52033;SDS011;38045;52.988;6.536;2023-03-14T00:46:52;22.30;;;4.82;;
52033;SDS011;38045;52.988;6.536;2023-03-14T00:49:18;10.13;;;1.90;;
52033;SDS011;38045;52.988;6.536;2023-03-14T00:51:44;16.20;;;4.68;;
52033;SDS011;38045;52.988;6.536;2023-03-14T00:54:10;21.58;;;6.97;;
52033;SDS011;38045;52.988;6.536;2023-03-14T00:56:35;15.35;;;5.72;;
52033;SDS011;38045;52.988;6.536;2023-03-14T00:59:01;19.17;;;4.60;;
52033;SDS011;38045;52.988;6.536;2023-03-14T01:01:27;17.02;;;3.78;;
52033;SDS011;38045;52.988;6.536;2023-03-14T01:03:53;18.48;;;5.00;;
52033;SDS011;38045;52.988;6.536;2023-03-14T01:06:21;11.95;;;3.40;;
52033;SDS011;38045;52.988;6.536;2023-03-14T01:08:48;18.40;;;5.05;;
52033;SDS011;38045;52.988;6.536;2023-03-14T01:11:18;22.83;;;6.10;;
52033;SDS011;38045;52.988;6.536;2023-03-14T01:13:55;13.60;;;4.45;;
52033;SDS011;38045;52.988;6.536;2023-03-14T01:16:21;23.58;;;6.07;;
52033;SDS011;38045;52.988;6.536;2023-03-14T01:18:48;20.70;;;4.50;;
52033;SDS011;38045;52.988;6.536;2023-03-14T01:21:24;9.98;;;3.53;;
52033;SDS011;38045;52.988;6.536;2023-03-14T01:23:52;14.40;;;5.00;;
52033;SDS011;38045;52.988;6.536;2023-03-14T01:26:20;9.73;;;3.78;;
52033;SDS011;38045;52.988;6.536;2023-03-14T01:28:48;11.70;;;3.22;;
52033;SDS011;38045;52.988;6.536;2023-03-14T01:31:15;14.98;;;4.05;;
52033;SDS011;38045;52.988;6.536;2023-03-14T01:33:41;18.15;;;4.78;;
52033;SDS011;38045;52.988;6.536;2023-03-14T01:36:07;16.75;;;4.50;;
52033;SDS011;38045;52.988;6.536;2023-03-14T01:38:34;19.75;;;6.15;;
52033;SDS011;38045;52.988;6.536;2023-03-14T01:41:01;8.95;;;3.05;;
52033;SDS011;38045;52.988;6.536;2023-03-14T01:43:28;18.75;;;5.50;;
52033;SDS011;38045;52.988;6.536;2023-03-14T01:48:42;11.68;;;3.45;;
52033;SDS011;38045;52.988;6.536;2023-03-14T01:54:08;16.27;;;5.55;;
52033;SDS011;38045;52.988;6.536;2023-03-14T01:56:53;13.98;;;4.85;;
52033;SDS011;38045;52.988;6.536;2023-03-14T01:59:27;14.48;;;5.45;;
52033;SDS011;38045;52.988;6.536;2023-03-14T02:01:55;15.68;;;2.80;;
52033;SDS011;38045;52.988;6.536;2023-03-14T02:04:20;10.35;;;3.20;;
52033;SDS011;38045;52.988;6.536;2023-03-14T02:06:53;11.10;;;3.60;;
52033;SDS011;38045;52.988;6.536;2023-03-14T02:09:40;14.40;;;5.15;;
52033;SDS011;38045;52.988;6.536;2023-03-14T02:12:11;9.52;;;3.13;;
52033;SDS011;38045;52.988;6.536;2023-03-14T02:14:39;11.98;;;3.20;;
52033;SDS011;38045;52.988;6.536;2023-03-14T02:17:07;9.93;;;3.60;;
52033;SDS011;38045;52.988;6.536;2023-03-14T02:22:20;17.98;;;2.75;;
52033;SDS011;38045;52.988;6.536;2023-03-14T02:24:50;17.85;;;5.25;;
52033;SDS011;38045;52.988;6.536;2023-03-14T02:27:19;6.78;;;2.33;;
52033;SDS011;38045;52.988;6.536;2023-03-14T02:32:20;9.48;;;3.50;;
52033;SDS011;38045;52.988;6.536;2023-03-14T02:34:48;8.52;;;2.40;;
52033;SDS011;38045;52.988;6.536;2023-03-14T02:37:17;10.73;;;2.58;;
52033;SDS011;38045;52.988;6.536;2023-03-14T02:39:46;11.90;;;2.60;;
52033;SDS011;38045;52.988;6.536;2023-03-14T02:42:14;4.22;;;1.58;;
52033;SDS011;38045;52.988;6.536;2023-03-14T02:47:49;11.02;;;2.92;;
52033;SDS011;38045;52.988;6.536;2023-03-14T02:50:20;8.50;;;1.63;;
52033;SDS011;38045;52.988;6.536;2023-03-14T02:52:49;5.28;;;1.67;;
52033;SDS011;38045;52.988;6.536;2023-03-14T02:55:14;11.15;;;2.78;;
52033;SDS011;38045;52.988;6.536;2023-03-14T02:57:44;3.83;;;1.70;;
52033;SDS011;38045;52.988;6.536;2023-03-14T03:00:10;4.85;;;3.03;;
52033;SDS011;38045;52.988;6.536;2023-03-14T03:02:36;12.40;;;3.72;;
52033;SDS011;38045;52.988;6.536;2023-03-14T03:05:02;13.98;;;5.07;;
52033;SDS011;38045;52.988;6.536;2023-03-14T03:07:27;12.52;;;5.80;;
52033;SDS011;38045;52.988;6.536;2023-03-14T03:09:53;20.85;;;7.75;;
52033;SDS011;38045;52.988;6.536;2023-03-14T03:12:18;21.20;;;5.65;;
52033;SDS011;38045;52.988;6.536;2023-03-14T03:14:44;11.35;;;5.85;;
52033;SDS011;38045;52.988;6.536;2023-03-14T03:17:09;4.97;;;3.38;;
52033;SDS011;38045;52.988;6.536;2023-03-14T03:19:35;16.02;;;5.15;;
52033;SDS011;38045;52.988;6.536;2023-03-14T03:22:01;11.63;;;3.97;;
52033;SDS011;38045;52.988;6.536;2023-03-14T03:24:26;15.05;;;7.55;;
52033;SDS011;38045;52.988;6.536;2023-03-14T03:26:52;12.75;;;4.65;;
52033;SDS011;38045;52.988;6.536;2023-03-14T03:29:18;17.85;;;5.15;;
52033;SDS011;38045;52.988;6.536;2023-03-14T03:31:44;4.75;;;3.38;;
52033;SDS011;38045;52.988;6.536;2023-03-14T03:34:13;18.98;;;4.93;;
52033;SDS011;38045;52.988;6.536;2023-03-14T03:36:39;14.30;;;5.35;;
52033;SDS011;38045;52.988;6.536;2023-03-14T03:39:05;12.50;;;5.35;;
52033;SDS011;38045;52.988;6.536;2023-03-14T03:41:31;20.30;;;4.78;;
52033;SDS011;38045;52.988;6.536;2023-03-14T03:43:57;9.23;;;5.47;;
52033;SDS011;38045;52.988;6.536;2023-03-14T03:46:23;14.98;;;5.63;;
52033;SDS011;38045;52.988;6.536;2023-03-14T03:48:49;13.25;;;3.63;;
52033;SDS011;38045;52.988;6.536;2023-03-14T03:51:24;8.93;;;3.47;;
52033;SDS011;38045;52.988;6.536;2023-03-14T03:53:50;6.75;;;4.50;;
52033;SDS011;38045;52.988;6.536;2023-03-14T03:56:16;17.23;;;6.20;;
52033;SDS011;38045;52.988;6.536;2023-03-14T03:58:42;9.82;;;4.32;;
52033;SDS011;38045;52.988;6.536;2023-03-14T04:01:08;11.43;;;4.22;;
52033;SDS011;38045;52.988;6.536;2023-03-14T04:03:35;6.32;;;3.40;;
52033;SDS011;38045;52.988;6.536;2023-03-14T04:06:04;9.25;;;4.15;;
52033;SDS011;38045;52.988;6.536;2023-03-14T04:08:32;8.88;;;5.50;;
52033;SDS011;38045;52.988;6.536;2023-03-14T04:10:58;12.65;;;4.95;;
52033;SDS011;38045;52.988;6.536;2023-03-14T04:13:25;8.15;;;3.63;;
52033;SDS011;38045;52.988;6.536;2023-03-14T04:15:51;10.88;;;5.32;;
52033;SDS011;38045;52.988;6.536;2023-03-14T04:18:18;10.05;;;6.22;;
52033;SDS011;38045;52.988;6.536;2023-03-14T04:20:44;13.13;;;5.18;;
52033;SDS011;38045;52.988;6.536;2023-03-14T04:23:09;11.07;;;4.65;;
52033;SDS011;38045;52.988;6.536;2023-03-14T04:25:35;12.32;;;6.47;;
52033;SDS011;38045;52.988;6.536;2023-03-14T04:28:01;14.60;;;7.68;;
52033;SDS011;38045;52.988;6.536;2023-03-14T04:30:28;12.07;;;6.05;;
52033;SDS011;38045;52.988;6.536;2023-03-14T04:32:54;9.32;;;5.20;;
52033;SDS011;38045;52.988;6.536;2023-03-14T04:35:20;13.57;;;5.00;;
52033;SDS011;38045;52.988;6.536;2023-03-14T04:37:46;7.68;;;3.55;;
52033;SDS011;38045;52.988;6.536;2023-03-14T04:40:14;12.45;;;5.65;;
52033;SDS011;38045;52.988;6.536;2023-03-14T04:42:40;10.75;;;4.47;;
52033;SDS011;38045;52.988;6.536;2023-03-14T04:45:06;7.93;;;3.13;;
52033;SDS011;38045;52.988;6.536;2023-03-14T04:47:32;9.55;;;5.30;;
52033;SDS011;38045;52.988;6.536;2023-03-14T04:49:58;6.88;;;3.22;;
52033;SDS011;38045;52.988;6.536;2023-03-14T04:52:23;7.18;;;2.72;;
52033;SDS011;38045;52.988;6.536;2023-03-14T04:54:49;12.80;;;5.05;;
52033;SDS011;38045;52.988;6.536;2023-03-14T04:57:14;11.43;;;5.22;;
52033;SDS011;38045;52.988;6.536;2023-03-14T04:59:40;11.05;;;3.67;;
52033;SDS011;38045;52.988;6.536;2023-03-14T05:02:06;7.95;;;6.00;;
52033;SDS011;38045;52.988;6.536;2023-03-14T05:04:32;8.68;;;4.40;;
52033;SDS011;38045;52.988;6.536;2023-03-14T05:06:58;6.57;;;3.70;;
52033;SDS011;38045;52.988;6.536;2023-03-14T05:09:24;11.13;;;5.03;;
52033;SDS011;38045;52.988;6.536;2023-03-14T05:11:50;9.55;;;4.88;;
52033;SDS011;38045;52.988;6.536;2023-03-14T05:14:16;10.85;;;3.47;;
52033;SDS011;38045;52.988;6.536;2023-03-14T05:16:41;7.97;;;4.75;;
52033;SDS011;38045;52.988;6.536;2023-03-14T05:19:07;6.65;;;4.72;;
52033;SDS011;38045;52.988;6.536;2023-03-14T05:21:33;7.80;;;4.60;;
52033;SDS011;38045;52.988;6.536;2023-03-14T05:23:58;8.30;;;4.30;;
52033;SDS011;38045;52.988;6.536;2023-03-14T05:26:24;16.38;;;5.03;;
52033;SDS011;38045;52.988;6.536;2023-03-14T05:28:50;7.97;;;2.92;;
52033;SDS011;38045;52.988;6.536;2023-03-14T05:31:15;13.30;;;4.70;;
52033;SDS011;38045;52.988;6.536;2023-03-14T05:33:41;13.27;;;5.57;;
52033;SDS011;38045;52.988;6.536;2023-03-14T05:36:06;16.13;;;7.60;;
52033;SDS011;38045;52.988;6.536;2023-03-14T05:38:32;10.63;;;6.00;;
52033;SDS011;38045;52.988;6.536;2023-03-14T05:40:58;7.13;;;4.78;;
52033;SDS011;38045;52.988;6.536;2023-03-14T05:43:24;10.57;;;6.57;;
52033;SDS011;38045;52.988;6.536;2023-03-14T05:45:49;6.55;;;3.63;;
52033;SDS011;38045;52.988;6.536;2023-03-14T05:48:15;17.25;;;5.97;;
52033;SDS011;38045;52.988;6.536;2023-03-14T05:50:41;9.77;;;5.82;;
52033;SDS011;38045;52.988;6.536;2023-03-14T05:53:07;15.60;;;6.47;;
52033;SDS011;38045;52.988;6.536;2023-03-14T05:55:33;13.70;;;7.88;;
52033;SDS011;38045;52.988;6.536;2023-03-14T05:57:59;7.57;;;4.65;;
52033;SDS011;38045;52.988;6.536;2023-03-14T06:00:24;11.20;;;5.30;;
52033;SDS011;38045;52.988;6.536;2023-03-14T06:02:50;11.25;;;6.32;;
52033;SDS011;38045;52.988;6.536;2023-03-14T06:05:15;12.82;;;8.50;;
52033;SDS011;38045;52.988;6.536;2023-03-14T06:07:41;11.65;;;5.95;;
52033;SDS011;38045;52.988;6.536;2023-03-14T06:10:07;12.68;;;6.45;;
52033;SDS011;38045;52.988;6.536;2023-03-14T06:12:33;9.25;;;3.72;;
52033;SDS011;38045;52.988;6.536;2023-03-14T06:14:58;7.95;;;6.43;;
52033;SDS011;38045;52.988;6.536;2023-03-14T06:17:24;15.00;;;7.53;;
52033;SDS011;38045;52.988;6.536;2023-03-14T06:19:49;11.57;;;5.45;;
52033;SDS011;38045;52.988;6.536;2023-03-14T06:22:15;8.57;;;4.43;;
52033;SDS011;38045;52.988;6.536;2023-03-14T06:24:41;7.65;;;3.83;;
52033;SDS011;38045;52.988;6.536;2023-03-14T06:27:06;8.60;;;3.97;;
52033;SDS011;38045;52.988;6.536;2023-03-14T06:29:32;10.95;;;4.95;;
52033;SDS011;38045;52.988;6.536;2023-03-14T06:31:57;7.35;;;5.22;;
52033;SDS011;38045;52.988;6.536;2023-03-14T06:34:23;7.10;;;4.82;;
52033;SDS011;38045;52.988;6.536;2023-03-14T06:36:48;9.43;;;4.63;;
52033;SDS011;38045;52.988;6.536;2023-03-14T06:39:14;10.13;;;4.30;;
52033;SDS011;38045;52.988;6.536;2023-03-14T06:41:40;10.70;;;5.38;;
52033;SDS011;38045;52.988;6.536;2023-03-14T06:44:05;7.95;;;5.10;;
52033;SDS011;38045;52.988;6.536;2023-03-14T06:46:31;9.95;;;5.18;;
52033;SDS011;38045;52.988;6.536;2023-03-14T06:48:56;6.80;;;4.55;;
52033;SDS011;38045;52.988;6.536;2023-03-14T06:51:22;10.10;;;5.78;;
52033;SDS011;38045;52.988;6.536;2023-03-14T06:53:48;8.38;;;4.88;;
52033;SDS011;38045;52.988;6.536;2023-03-14T06:56:13;5.82;;;2.75;;
52033;SDS011;38045;52.988;6.536;2023-03-14T06:58:39;8.93;;;4.82;;
52033;SDS011;38045;52.988;6.536;2023-03-14T07:01:05;10.88;;;5.18;;
52033;SDS011;38045;52.988;6.536;2023-03-14T07:03:31;5.57;;;3.03;;
52033;SDS011;38045;52.988;6.536;2023-03-14T07:05:56;3.33;;;1.35;;
52033;SDS011;38045;52.988;6.536;2023-03-14T07:08:22;3.08;;;0.95;;
52033;SDS011;38045;52.988;6.536;2023-03-14T07:10:48;4.55;;;1.27;;
52033;SDS011;38045;52.988;6.536;2023-03-14T07:13:13;9.18;;;1.48;;
52033;SDS011;38045;52.988;6.536;2023-03-14T07:15:39;4.72;;;0.77;;
52033;SDS011;38045;52.988;6.536;2023-03-14T07:18:05;7.88;;;1.30;;
52033;SDS011;38045;52.988;6.536;2023-03-14T07:20:30;9.98;;;3.28;;
52033;SDS011;38045;52.988;6.536;2023-03-14T07:22:57;4.43;;;0.77;;
52033;SDS011;38045;52.988;6.536;2023-03-14T07:25:24;13.07;;;3.00;;
52033;SDS011;38045;52.988;6.536;2023-03-14T07:27:50;0.90;;;0.70;;
52033;SDS011;38045;52.988;6.536;2023-03-14T07:30:16;3.17;;;1.65;;
52033;SDS011;38045;52.988;6.536;2023-03-14T07:32:42;4.90;;;1.55;;
52033;SDS011;38045;52.988;6.536;2023-03-14T07:35:07;5.25;;;0.75;;
52033;SDS011;38045;52.988;6.536;2023-03-14T07:37:34;4.35;;;0.88;;
52033;SDS011;38045;52.988;6.536;2023-03-14T07:39:59;8.85;;;1.63;;
52033;SDS011;38045;52.988;6.536;2023-03-14T07:42:25;4.03;;;0.75;;
52033;SDS011;38045;52.988;6.536;2023-03-14T07:44:50;5.15;;;1.75;;
52033;SDS011;38045;52.988;6.536;2023-03-14T07:47:16;2.17;;;0.57;;
52033;SDS011;38045;52.988;6.536;2023-03-14T07:49:41;2.40;;;0.50;;
52033;SDS011;38045;52.988;6.536;2023-03-14T07:52:07;2.90;;;1.10;;
52033;SDS011;38045;52.988;6.536;2023-03-14T07:54:33;2.60;;;0.17;;
52033;SDS011;38045;52.988;6.536;2023-03-14T07:56:58;9.18;;;1.08;;
52033;SDS011;38045;52.988;6.536;2023-03-14T07:59:25;7.05;;;2.92;;
52033;SDS011;38045;52.988;6.536;2023-03-14T08:01:52;5.43;;;1.52;;
52033;SDS011;38045;52.988;6.536;2023-03-14T08:04:17;0.70;;;0.10;;
52033;SDS011;38045;52.988;6.536;2023-03-14T08:06:43;1.45;;;0.20;;
52033;SDS011;38045;52.988;6.536;2023-03-14T08:09:08;2.42;;;1.13;;
52033;SDS011;38045;52.988;6.536;2023-03-14T08:11:34;4.57;;;0.10;;
52033;SDS011;38045;52.988;6.536;2023-03-14T08:14:00;5.32;;;0.93;;
52033;SDS011;38045;52.988;6.536;2023-03-14T08:16:25;0.77;;;0.47;;
52033;SDS011;38045;52.988;6.536;2023-03-14T08:18:51;3.00;;;0.52;;
52033;SDS011;38045;52.988;6.536;2023-03-14T08:21:17;2.10;;;0.20;;
52033;SDS011;38045;52.988;6.536;2023-03-14T08:23:42;2.45;;;0.40;;
52033;SDS011;38045;52.988;6.536;2023-03-14T08:26:08;4.78;;;0.25;;
52033;SDS011;38045;52.988;6.536;2023-03-14T08:28:33;2.80;;;0.28;;
52033;SDS011;38045;52.988;6.536;2023-03-14T08:31:00;4.78;;;0.85;;
52033;SDS011;38045;52.988;6.536;2023-03-14T08:33:26;4.63;;;1.23;;
52033;SDS011;38045;52.988;6.536;2023-03-14T08:35:53;0.68;;;0.30;;
52033;SDS011;38045;52.988;6.536;2023-03-14T08:38:20;7.85;;;1.13;;
52033;SDS011;38045;52.988;6.536;2023-03-14T08:40:46;5.30;;;0.98;;
52033;SDS011;38045;52.988;6.536;2023-03-14T08:43:12;2.30;;;0.50;;
52033;SDS011;38045;52.988;6.536;2023-03-14T08:45:37;0.68;;;0.57;;
52033;SDS011;38045;52.988;6.536;2023-03-14T08:48:03;5.35;;;0.80;;
52033;SDS011;38045;52.988;6.536;2023-03-14T08:50:29;5.60;;;0.88;;
52033;SDS011;38045;52.988;6.536;2023-03-14T08:52:54;2.85;;;0.65;;
52033;SDS011;38045;52.988;6.536;2023-03-14T08:55:22;3.28;;;0.38;;
52033;SDS011;38045;52.988;6.536;2023-03-14T08:57:48;10.40;;;1.60;;
52033;SDS011;38045;52.988;6.536;2023-03-14T09:00:13;5.22;;;1.23;;
52033;SDS011;38045;52.988;6.536;2023-03-14T09:02:40;9.15;;;2.22;;
52033;SDS011;38045;52.988;6.536;2023-03-14T09:05:06;8.48;;;1.45;;
52033;SDS011;38045;52.988;6.536;2023-03-14T09:07:32;8.00;;;1.80;;
52033;SDS011;38045;52.988;6.536;2023-03-14T09:09:58;18.55;;;2.20;;
52033;SDS011;38045;52.988;6.536;2023-03-14T09:12:24;8.70;;;2.55;;
52033;SDS011;38045;52.988;6.536;2023-03-14T09:14:49;15.65;;;2.25;;
52033;SDS011;38045;52.988;6.536;2023-03-14T09:17:15;10.82;;;2.60;;
52033;SDS011;38045;52.988;6.536;2023-03-14T09:19:40;9.93;;;1.98;;
52033;SDS011;38045;52.988;6.536;2023-03-14T09:22:06;11.30;;;2.67;;
52033;SDS011;38045;52.988;6.536;2023-03-14T09:24:32;11.07;;;3.03;;
52033;SDS011;38045;52.988;6.536;2023-03-14T09:26:57;14.05;;;3.13;;
52033;SDS011;38045;52.988;6.536;2023-03-14T09:29:23;7.13;;;1.65;;
52033;SDS011;38045;52.988;6.536;2023-03-14T09:31:49;10.23;;;3.17;;
52033;SDS011;38045;52.988;6.536;2023-03-14T09:34:15;16.65;;;4.55;;
52033;SDS011;38045;52.988;6.536;2023-03-14T09:36:41;15.52;;;3.10;;
52033;SDS011;38045;52.988;6.536;2023-03-14T09:39:09;18.13;;;6.55;;
52033;SDS011;38045;52.988;6.536;2023-03-14T09:41:37;25.45;;;2.75;;
52033;SDS011;38045;52.988;6.536;2023-03-14T09:46:37;15.43;;;3.50;;
52033;SDS011;38045;52.988;6.536;2023-03-14T09:49:19;21.45;;;3.63;;
52033;SDS011;38045;52.988;6.536;2023-03-14T09:51:49;14.60;;;2.80;;
52033;SDS011;38045;52.988;6.536;2023-03-14T09:54:37;14.00;;;3.00;;
52033;SDS011;38045;52.988;6.536;2023-03-14T09:57:08;20.77;;;4.18;;
52033;SDS011;38045;52.988;6.536;2023-03-14T09:59:38;17.00;;;3.50;;
52033;SDS011;38045;52.988;6.536;2023-03-14T10:02:17;11.47;;;2.17;;
52033;SDS011;38045;52.988;6.536;2023-03-14T10:04:45;15.55;;;3.40;;
52033;SDS011;38045;52.988;6.536;2023-03-14T10:07:16;11.93;;;3.25;;
52033;SDS011;38045;52.988;6.536;2023-03-14T10:09:50;20.27;;;3.67;;
52033;SDS011;38045;52.988;6.536;2023-03-14T10:12:16;22.10;;;3.40;;
52033;SDS011;38045;52.988;6.536;2023-03-14T10:14:47;31.58;;;4.65;;
52033;SDS011;38045;52.988;6.536;2023-03-14T10:17:15;11.90;;;3.20;;
52033;SDS011;38045;52.988;6.536;2023-03-14T10:22:21;18.13;;;2.85;;
52033;SDS011;38045;52.988;6.536;2023-03-14T10:24:51;18.90;;;2.88;;
52033;SDS011;38045;52.988;6.536;2023-03-14T10:27:20;14.57;;;3.15;;
52033;SDS011;38045;52.988;6.536;2023-03-14T10:32:34;13.05;;;3.72;;
52033;SDS011;38045;52.988;6.536;2023-03-14T10:37:50;15.35;;;3.47;;
52033;SDS011;38045;52.988;6.536;2023-03-14T10:40:20;12.90;;;3.53;;
52033;SDS011;38045;52.988;6.536;2023-03-14T10:42:49;26.77;;;6.38;;
52033;SDS011;38045;52.988;6.536;2023-03-14T10:50:55;8.63;;;2.08;;
52033;SDS011;38045;52.988;6.536;2023-03-14T10:53:23;9.88;;;2.63;;
52033;SDS011;38045;52.988;6.536;2023-03-14T10:55:49;11.23;;;4.75;;
52033;SDS011;38045;52.988;6.536;2023-03-14T11:00:53;13.70;;;2.72;;
52033;SDS011;38045;52.988;6.536;2023-03-14T11:03:42;16.83;;;2.53;;
52033;SDS011;38045;52.988;6.536;2023-03-14T11:12:20;15.05;;;2.15;;
52033;SDS011;38045;52.988;6.536;2023-03-14T11:32:01;14.23;;;2.30;;
52033;SDS011;38045;52.988;6.536;2023-03-14T11:37:03;7.53;;;1.30;;
52033;SDS011;38045;52.988;6.536;2023-03-14T11:39:40;9.05;;;2.25;;
52033;SDS011;38045;52.988;6.536;2023-03-14T11:42:11;7.03;;;2.45;;
52033;SDS011;38045;52.988;6.536;2023-03-14T11:44:40;13.68;;;2.45;;
52033;SDS011;38045;52.988;6.536;2023-03-14T11:47:09;7.63;;;1.45;;
52033;SDS011;38045;52.988;6.536;2023-03-14T11:49:38;7.28;;;1.90;;
52033;SDS011;38045;52.988;6.536;2023-03-14T11:55:13;7.25;;;1.70;;
52033;SDS011;38045;52.988;6.536;2023-03-14T11:57:46;14.95;;;1.98;;
52033;SDS011;38045;52.988;6.536;2023-03-14T12:02:53;1.95;;;1.25;;
52033;SDS011;38045;52.988;6.536;2023-03-14T12:05:37;9.52;;;2.35;;
52033;SDS011;38045;52.988;6.536;2023-03-14T12:10:37;11.05;;;2.10;;
52033;SDS011;38045;52.988;6.536;2023-03-14T12:13:07;3.92;;;1.35;;
52033;SDS011;38045;52.988;6.536;2023-03-14T12:15:36;4.53;;;1.05;;
52033;SDS011;38045;52.988;6.536;2023-03-14T12:18:25;5.45;;;1.23;;
52033;SDS011;38045;52.988;6.536;2023-03-14T12:20:57;3.20;;;1.42;;
52033;SDS011;38045;52.988;6.536;2023-03-14T12:28:52;7.40;;;1.10;;
52033;SDS011;38045;52.988;6.536;2023-03-14T12:31:47;7.93;;;1.48;;
52033;SDS011;38045;52.988;6.536;2023-03-14T12:34:42;1.25;;;0.80;;
52033;SDS011;38045;52.988;6.536;2023-03-14T12:44:50;1.85;;;0.80;;
52033;SDS011;38045;52.988;6.536;2023-03-14T12:49:44;11.10;;;3.22;;
52033;SDS011;38045;52.988;6.536;2023-03-14T12:53:02;3.78;;;0.60;;
52033;SDS011;38045;52.988;6.536;2023-03-14T12:55:21;4.40;;;1.88;;
52033;SDS011;38045;52.988;6.536;2023-03-14T13:00:31;3.33;;;1.38;;
52033;SDS011;38045;52.988;6.536;2023-03-14T13:03:11;4.57;;;0.77;;
52033;SDS011;38045;52.988;6.536;2023-03-14T13:05:56;9.65;;;1.95;;
52033;SDS011;38045;52.988;6.536;2023-03-14T13:11:01;4.70;;;1.00;;
52033;SDS011;38045;52.988;6.536;2023-03-14T13:13:30;4.93;;;1.13;;
52033;SDS011;38045;52.988;6.536;2023-03-14T13:16:00;5.38;;;1.20;;
52033;SDS011;38045;52.988;6.536;2023-03-14T13:18:45;4.07;;;1.17;;
52033;SDS011;38045;52.988;6.536;2023-03-14T13:23:53;3.10;;;1.27;;
52033;SDS011;38045;52.988;6.536;2023-03-14T13:26:23;4.90;;;1.10;;
52033;SDS011;38045;52.988;6.536;2023-03-14T13:28:56;10.07;;;2.08;;
52033;SDS011;38045;52.988;6.536;2023-03-14T13:31:23;3.50;;;1.35;;
52033;SDS011;38045;52.988;6.536;2023-03-14T13:34:04;7.53;;;1.05;;
52033;SDS011;38045;52.988;6.536;2023-03-14T13:36:33;5.57;;;1.70;;
52033;SDS011;38045;52.988;6.536;2023-03-14T13:39:01;6.30;;;1.67;;
52033;SDS011;38045;52.988;6.536;2023-03-14T13:41:27;5.47;;;0.82;;
52033;SDS011;38045;52.988;6.536;2023-03-14T13:43:58;4.13;;;1.25;;
52033;SDS011;38045;52.988;6.536;2023-03-14T13:46:28;0.75;;;0.70;;
52033;SDS011;38045;52.988;6.536;2023-03-14T13:48:55;6.68;;;1.48;;
52033;SDS011;38045;52.988;6.536;2023-03-14T13:51:23;2.15;;;0.95;;
52033;SDS011;38045;52.988;6.536;2023-03-14T13:53:53;7.05;;;2.80;;
52033;SDS011;38045;52.988;6.536;2023-03-14T13:56:24;7.05;;;1.83;;
52033;SDS011;38045;52.988;6.536;2023-03-14T13:58:52;5.38;;;0.75;;
52033;SDS011;38045;52.988;6.536;2023-03-14T14:04:05;4.45;;;1.08;;
52033;SDS011;38045;52.988;6.536;2023-03-14T14:09:09;4.55;;;1.55;;
52033;SDS011;38045;52.988;6.536;2023-03-14T14:14:05;4.93;;;1.35;;
52033;SDS011;38045;52.988;6.536;2023-03-14T14:16:33;2.15;;;1.63;;
52033;SDS011;38045;52.988;6.536;2023-03-14T14:18:58;5.55;;;1.20;;
52033;SDS011;38045;52.988;6.536;2023-03-14T14:21:25;6.25;;;0.80;;
52033;SDS011;38045;52.988;6.536;2023-03-14T14:23:51;5.78;;;1.10;;
52033;SDS011;38045;52.988;6.536;2023-03-14T14:26:18;3.00;;;1.20;;
52033;SDS011;38045;52.988;6.536;2023-03-14T14:28:44;4.25;;;1.10;;
52033;SDS011;38045;52.988;6.536;2023-03-14T14:33:40;7.37;;;2.67;;
52033;SDS011;38045;52.988;6.536;2023-03-14T14:36:18;2.15;;;1.05;;
52033;SDS011;38045;52.988;6.536;2023-03-14T14:38:54;3.58;;;1.42;;
52033;SDS011;38045;52.988;6.536;2023-03-14T14:41:22;4.35;;;1.65;;
52033;SDS011;38045;52.988;6.536;2023-03-14T14:43:52;7.43;;;1.52;;
52033;SDS011;38045;52.988;6.536;2023-03-14T14:46:18;7.30;;;1.40;;
52033;SDS011;38045;52.988;6.536;2023-03-14T14:48:45;5.95;;;1.63;;
52033;SDS011;38045;52.988;6.536;2023-03-14T14:51:21;9.77;;;2.60;;
52033;SDS011;38045;52.988;6.536;2023-03-14T14:54:03;6.60;;;2.47;;
52033;SDS011;38045;52.988;6.536;2023-03-14T14:59:01;10.90;;;2.47;;
52033;SDS011;38045;52.988;6.536;2023-03-14T15:01:34;5.50;;;1.08;;
52033;SDS011;38045;52.988;6.536;2023-03-14T15:04:01;2.47;;;1.23;;
52033;SDS011;38045;52.988;6.536;2023-03-14T15:06:34;10.07;;;1.85;;
52033;SDS011;38045;52.988;6.536;2023-03-14T15:08:59;6.32;;;1.48;;
52033;SDS011;38045;52.988;6.536;2023-03-14T15:11:25;4.70;;;1.58;;
52033;SDS011;38045;52.988;6.536;2023-03-14T15:13:52;4.53;;;0.80;;
52033;SDS011;38045;52.988;6.536;2023-03-14T15:16:19;5.43;;;1.40;;
52033;SDS011;38045;52.988;6.536;2023-03-14T15:18:52;9.70;;;1.98;;
52033;SDS011;38045;52.988;6.536;2023-03-14T15:21:20;5.75;;;1.00;;
52033;SDS011;38045;52.988;6.536;2023-03-14T15:23:46;14.32;;;2.00;;
52033;SDS011;38045;52.988;6.536;2023-03-14T15:26:16;3.13;;;0.80;;
52033;SDS011;38045;52.988;6.536;2023-03-14T15:28:44;4.65;;;1.02;;
52033;SDS011;38045;52.988;6.536;2023-03-14T15:31:11;8.07;;;1.50;;
52033;SDS011;38045;52.988;6.536;2023-03-14T15:33:38;3.45;;;1.10;;
52033;SDS011;38045;52.988;6.536;2023-03-14T15:36:04;5.25;;;1.98;;
52033;SDS011;38045;52.988;6.536;2023-03-14T15:38:31;5.25;;;0.82;;
52033;SDS011;38045;52.988;6.536;2023-03-14T15:40:57;3.38;;;0.90;;
52033;SDS011;38045;52.988;6.536;2023-03-14T15:43:22;3.70;;;1.10;;
52033;SDS011;38045;52.988;6.536;2023-03-14T15:45:48;5.53;;;1.83;;
52033;SDS011;38045;52.988;6.536;2023-03-14T15:48:16;6.05;;;1.42;;
52033;SDS011;38045;52.988;6.536;2023-03-14T15:50:44;4.40;;;0.97;;
52033;SDS011;38045;52.988;6.536;2023-03-14T15:53:10;5.28;;;1.27;;
52033;SDS011;38045;52.988;6.536;2023-03-14T15:55:36;4.22;;;1.30;;
52033;SDS011;38045;52.988;6.536;2023-03-14T15:58:02;4.97;;;1.70;;
52033;SDS011;38045;52.988;6.536;2023-03-14T16:00:28;6.45;;;1.08;;
52033;SDS011;38045;52.988;6.536;2023-03-14T16:02:54;7.60;;;1.85;;
52033;SDS011;38045;52.988;6.536;2023-03-14T16:05:20;7.38;;;2.53;;
52033;SDS011;38045;52.988;6.536;2023-03-14T16:07:46;15.20;;;2.47;;
52033;SDS011;38045;52.988;6.536;2023-03-14T16:10:13;5.70;;;1.60;;
52033;SDS011;38045;52.988;6.536;2023-03-14T16:12:39;4.03;;;1.60;;
52033;SDS011;38045;52.988;6.536;2023-03-14T16:15:05;8.05;;;1.40;;
52033;SDS011;38045;52.988;6.536;2023-03-14T16:17:32;4.03;;;1.35;;
52033;SDS011;38045;52.988;6.536;2023-03-14T16:19:59;4.55;;;2.05;;
52033;SDS011;38045;52.988;6.536;2023-03-14T16:22:24;8.20;;;2.03;;
52033;SDS011;38045;52.988;6.536;2023-03-14T16:24:50;6.43;;;1.63;;
52033;SDS011;38045;52.988;6.536;2023-03-14T16:27:15;6.07;;;2.70;;
52033;SDS011;38045;52.988;6.536;2023-03-14T16:29:41;3.75;;;1.38;;